Time,TemperatureF,DewpointF,PressureIn,WindDirection,WindDirectionDegrees,WindSpeedMPH,WindSpeedGustMPH,Humidity,HourlyPrecipIn,Conditions,Clouds,dailyrainin,SolarRadiationWatts/m^2,SoftwareType,DateUTC
2013-03-20 00:07:00,76.1,71.0,29.96,East,96,3.0,9.0,84,0.00,,,0.00,0,weatherlink.com 1.10,2013-03-20 04:07:00,
2013-03-20 00:22:00,75.9,71.0,29.96,ESE,109,3.0,10.0,84,0.00,,,0.00,0,weatherlink.com 1.10,2013-03-20 04:22:00,
2013-03-20 00:37:00,75.8,71.0,29.96,ESE,108,2.0,7.0,84,0.00,,,0.00,0,weatherlink.com 1.10,2013-03-20 04:37:00,
2013-03-20 00:52:00,75.6,71.0,29.95,East,91,2.0,8.0,85,0.00,,,0.00,0,weatherlink.com 1.10,2013-03-20 04:52:00,
2013-03-20 01:07:00,75.4,70.0,29.95,SE,129,2.0,8.0,84,0.00,,,0.00,0,weatherlink.com 1.10,2013-03-20 05:07:00,
2013-03-20 01:22:00,75.4,70.0,29.94,East,99,7.0,10.0,84,0.00,,,0.00,0,weatherlink.com 1.10,2013-03-20 05:22:00,
2013-03-20 01:37:00,75.4,70.0,29.93,East,91,3.0,8.0,84,0.00,,,0.00,0,weatherlink.com 1.10,2013-03-20 05:37:00,
2013-03-20 01:52:00,75.3,70.0,29.92,ESE,113,5.0,8.0,84,0.00,,,0.00,0,weatherlink.com 1.10,2013-03-20 05:52:00,
2013-03-20 02:07:00,75.2,70.0,29.91,ESE,112,1.0,7.0,84,0.00,,,0.00,0,weatherlink.com 1.10,2013-03-20 06:07:00,
2013-03-20 02:22:00,74.9,70.0,29.90,ESE,112,1.0,4.0,85,0.00,,,0.00,0,weatherlink.com 1.10,2013-03-20 06:22:00,
2013-03-20 02:52:00,74.5,70.0,29.90,SE,131,1.0,3.0,86,0.00,,,0.00,0,weatherlink.com 1.10,2013-03-20 06:52:00,
2013-03-20 03:07:00,74.2,70.0,29.89,SE,124,6.0,7.0,85,0.00,,,0.00,0,weatherlink.com 1.10,2013-03-20 07:07:00,
2013-03-20 03:22:00,74.2,70.0,29.90,ESE,120,4.0,9.0,85,0.00,,,0.00,0,weatherlink.com 1.10,2013-03-20 07:22:00,
2013-03-20 03:37:00,74.3,70.0,29.90,ESE,120,2.0,5.0,85,0.00,,,0.00,0,weatherlink.com 1.10,2013-03-20 07:37:00,
2013-03-20 03:52:00,74.5,70.0,29.90,ESE,120,0.0,2.0,85,0.00,,,0.00,0,weatherlink.com 1.10,2013-03-20 07:52:00,
2013-03-20 04:07:00,74.5,69.0,29.90,ESE,120,1.0,4.0,84,0.00,,,0.00,0,weatherlink.com 1.10,2013-03-20 08:07:00,
2013-03-20 04:22:00,75.0,70.0,29.90,ESE,120,0.0,5.0,84,0.00,,,0.00,0,weatherlink.com 1.10,2013-03-20 08:22:00,
2013-03-20 04:37:00,75.0,70.0,29.90,ESE,120,0.0,1.0,84,0.00,,,0.00,0,weatherlink.com 1.10,2013-03-20 08:37:00,
2013-03-20 04:52:00,74.8,70.0,29.90,ESE,120,0.0,4.0,85,0.00,,,0.00,0,weatherlink.com 1.10,2013-03-20 08:52:00,
2013-03-20 05:07:00,74.7,70.0,29.90,ESE,120,0.0,3.0,85,0.00,,,0.00,0,weatherlink.com 1.10,2013-03-20 09:07:00,
2013-03-20 05:22:00,74.4,70.0,29.90,ESE,120,1.0,3.0,86,0.00,,,0.00,0,weatherlink.com 1.10,2013-03-20 09:22:00,
2013-03-20 05:37:00,74.2,70.0,29.91,ESE,120,2.0,3.0,86,0.00,,,0.00,0,weatherlink.com 1.10,2013-03-20 09:37:00,
2013-03-20 05:53:00,74.0,70.0,29.91,ESE,120,1.0,2.0,86,0.00,,,0.00,0,weatherlink.com 1.10,2013-03-20 09:53:00,
2013-03-20 06:08:00,74.0,70.0,29.91,ESE,120,0.0,3.0,86,0.00,,,0.00,0,weatherlink.com 1.10,2013-03-20 10:08:00,
2013-03-20 06:23:00,73.8,69.0,29.92,ESE,120,2.0,3.0,86,0.00,,,0.00,0,weatherlink.com 1.10,2013-03-20 10:23:00,
2013-03-20 06:38:00,73.8,69.0,29.92,ESE,120,0.0,4.0,86,0.00,,,0.00,11,weatherlink.com 1.10,2013-03-20 10:38:00,
2013-03-20 06:53:00,73.7,69.0,29.92,ESE,120,2.0,2.0,86,0.00,,,0.00,26,weatherlink.com 1.10,2013-03-20 10:53:00,
2013-03-20 07:08:00,73.7,69.0,29.93,ESE,120,0.0,3.0,86,0.00,,,0.00,98,weatherlink.com 1.10,2013-03-20 11:08:00,
2013-03-20 07:23:00,74.3,70.0,29.93,ESE,120,0.0,4.0,85,0.00,,,0.00,155,weatherlink.com 1.10,2013-03-20 11:23:00,
2013-03-20 07:38:00,75.1,70.0,29.93,ESE,120,0.0,4.0,84,0.00,,,0.00,213,weatherlink.com 1.10,2013-03-20 11:38:00,
2013-03-20 07:53:00,76.1,70.0,29.94,ESE,120,2.0,5.0,82,0.00,,,0.00,272,weatherlink.com 1.10,2013-03-20 11:53:00,
2013-03-20 08:08:00,77.1,71.0,29.94,ESE,120,3.0,4.0,80,0.00,,,0.00,334,weatherlink.com 1.10,2013-03-20 12:08:00,
2013-03-20 08:23:00,78.9,71.0,29.94,ESE,117,7.0,9.0,77,0.00,,,0.00,399,weatherlink.com 1.10,2013-03-20 12:23:00,
2013-03-20 08:38:00,79.9,71.0,29.95,ESE,114,1.0,8.0,75,0.00,,,0.00,439,weatherlink.com 1.10,2013-03-20 12:38:00,
2013-03-20 08:53:00,80.5,71.0,29.95,ESE,123,3.0,8.0,73,0.00,,,0.00,520,weatherlink.com 1.10,2013-03-20 12:53:00,
2013-03-20 09:08:00,81.7,72.0,29.95,ENE,77,5.0,7.0,73,0.00,,,0.00,563,weatherlink.com 1.10,2013-03-20 13:08:00,
2013-03-20 09:23:00,82.5,72.0,29.95,East,91,2.0,9.0,71,0.00,,,0.00,624,weatherlink.com 1.10,2013-03-20 13:23:00,
2013-03-20 09:38:00,82.7,73.0,29.95,ENE,76,9.0,11.0,72,0.00,,,0.00,186,weatherlink.com 1.10,2013-03-20 13:38:00,
2013-03-20 09:53:00,82.5,73.0,29.95,East,82,11.0,11.0,73,0.00,,,0.00,719,weatherlink.com 1.10,2013-03-20 13:53:00,
2013-03-20 10:08:00,82.5,73.0,29.95,NE,49,7.0,11.0,73,0.00,,,0.00,777,weatherlink.com 1.10,2013-03-20 14:08:00,
2013-03-20 10:39:00,83.8,73.0,29.96,NE,44,5.0,10.0,71,0.00,,,0.00,879,weatherlink.com 1.10,2013-03-20 14:39:00,
2013-03-20 10:54:00,83.4,73.0,29.96,ENE,71,5.0,14.0,71,0.00,,,0.00,403,weatherlink.com 1.10,2013-03-20 14:54:00,
2013-03-20 11:09:00,84.1,73.0,29.96,ENE,70,9.0,14.0,70,0.00,,,0.00,926,weatherlink.com 1.10,2013-03-20 15:09:00,
2013-03-20 11:24:00,84.3,74.0,29.95,ENE,58,12.0,14.0,70,0.00,,,0.00,698,weatherlink.com 1.10,2013-03-20 15:24:00,
2013-03-20 11:39:00,84.1,72.0,29.95,East,80,7.0,19.0,68,0.00,,,0.00,144,weatherlink.com 1.10,2013-03-20 15:39:00,
2013-03-20 11:54:00,84.3,72.0,29.94,NE,40,7.0,15.0,67,0.00,,,0.00,134,weatherlink.com 1.10,2013-03-20 15:54:00,
2013-03-20 12:09:00,84.7,73.0,29.93,NE,51,14.0,17.0,68,0.00,,,0.00,962,weatherlink.com 1.10,2013-03-20 16:09:00,
2013-03-20 12:24:00,83.9,72.0,29.92,ENE,61,12.0,21.0,68,0.00,,,0.00,244,weatherlink.com 1.10,2013-03-20 16:24:00,
2013-03-20 12:39:00,82.2,72.0,29.91,East,85,5.0,18.0,70,0.00,,,0.00,271,weatherlink.com 1.10,2013-03-20 16:39:00,
2013-03-20 12:54:00,83.5,72.0,29.90,ENE,70,14.0,17.0,68,0.00,,,0.00,937,weatherlink.com 1.10,2013-03-20 16:54:00,
2013-03-20 13:09:00,84.3,73.0,29.89,East,84,10.0,17.0,68,0.00,,,0.00,939,weatherlink.com 1.10,2013-03-20 17:09:00,
2013-03-20 13:24:00,84.5,72.0,29.88,NE,55,8.0,21.0,67,0.00,,,0.00,928,weatherlink.com 1.10,2013-03-20 17:24:00,
2013-03-20 13:39:00,83.6,72.0,29.87,ENE,64,15.0,23.0,68,0.00,,,0.00,947,weatherlink.com 1.10,2013-03-20 17:39:00,
2013-03-20 13:54:00,83.9,73.0,29.86,ENE,75,10.0,19.0,69,0.00,,,0.00,172,weatherlink.com 1.10,2013-03-20 17:54:00,
2013-03-20 14:09:00,82.6,73.0,29.86,East,79,5.0,16.0,72,0.00,,,0.00,185,weatherlink.com 1.10,2013-03-20 18:09:00,
2013-03-20 14:24:00,83.0,74.0,29.86,East,101,7.0,18.0,73,0.00,,,0.00,127,weatherlink.com 1.10,2013-03-20 18:24:00,
2013-03-20 14:39:00,82.5,73.0,29.86,ENE,78,12.0,18.0,72,0.00,,,0.00,260,weatherlink.com 1.10,2013-03-20 18:39:00,
2013-03-20 14:54:00,83.2,73.0,29.86,East,84,10.0,17.0,72,0.00,,,0.00,802,weatherlink.com 1.10,2013-03-20 18:54:00,
2013-03-20 15:09:00,83.2,73.0,29.85,NE,54,8.0,17.0,72,0.00,,,0.00,339,weatherlink.com 1.10,2013-03-20 19:09:00,
2013-03-20 15:24:00,84.8,74.0,29.85,ENE,78,10.0,14.0,71,0.00,,,0.00,693,weatherlink.com 1.10,2013-03-20 19:24:00,
2013-03-20 15:39:00,84.3,74.0,29.85,East,82,2.0,21.0,72,0.00,,,0.00,612,weatherlink.com 1.10,2013-03-20 19:39:00,
2013-03-20 15:54:00,83.9,74.0,29.84,ENE,58,9.0,19.0,72,0.00,,,0.00,561,weatherlink.com 1.10,2013-03-20 19:54:00,
2013-03-20 16:09:00,83.8,74.0,29.84,ENE,60,11.0,17.0,73,0.00,,,0.00,499,weatherlink.com 1.10,2013-03-20 20:09:00,
2013-03-20 16:24:00,83.7,74.0,29.84,East,79,7.0,15.0,73,0.00,,,0.00,431,weatherlink.com 1.10,2013-03-20 20:24:00,
2013-03-20 16:39:00,83.7,73.0,29.84,ESE,107,7.0,17.0,69,0.00,,,0.00,385,weatherlink.com 1.10,2013-03-20 20:39:00,
2013-03-20 16:54:00,83.9,71.0,29.84,East,88,9.0,16.0,65,0.00,,,0.00,341,weatherlink.com 1.10,2013-03-20 20:54:00,
2013-03-20 17:09:00,85.0,69.0,29.85,South,169,3.0,9.0,59,0.00,,,0.00,271,weatherlink.com 1.10,2013-03-20 21:09:00,
2013-03-20 17:24:00,85.0,69.0,29.85,SE,131,4.0,15.0,59,0.00,,,0.00,49,weatherlink.com 1.10,2013-03-20 21:24:00,
2013-03-20 17:39:00,83.8,69.0,29.86,ESE,109,4.0,15.0,61,0.00,,,0.00,40,weatherlink.com 1.10,2013-03-20 21:39:00,
2013-03-20 17:54:00,83.1,67.0,29.86,ESE,121,9.0,16.0,59,0.00,,,0.00,26,weatherlink.com 1.10,2013-03-20 21:54:00,
2013-03-20 18:09:00,82.9,68.0,29.86,ESE,112,2.0,8.0,62,0.00,,,0.00,18,weatherlink.com 1.10,2013-03-20 22:09:00,
2013-03-20 18:24:00,82.2,68.0,29.86,SE,126,12.0,16.0,63,0.00,,,0.00,9,weatherlink.com 1.10,2013-03-20 22:24:00,
2013-03-20 18:39:00,81.7,69.0,29.87,SE,142,3.0,6.0,66,0.00,,,0.00,0,weatherlink.com 1.10,2013-03-20 22:39:00,
2013-03-20 18:54:00,81.3,69.0,29.87,SE,146,5.0,9.0,67,0.00,,,0.00,0,weatherlink.com 1.10,2013-03-20 22:54:00,
2013-03-20 19:09:00,80.9,69.0,29.87,ESE,122,7.0,9.0,67,0.00,,,0.00,0,weatherlink.com 1.10,2013-03-20 23:09:00,
2013-03-20 19:24:00,80.4,69.0,29.88,SE,133,1.0,11.0,69,0.00,,,0.00,0,weatherlink.com 1.10,2013-03-20 23:24:00,
2013-03-20 19:54:00,79.6,70.0,29.88,SE,126,1.0,15.0,73,0.00,,,0.00,0,weatherlink.com 1.10,2013-03-20 23:54:00,
2013-03-20 20:09:00,79.5,71.0,29.89,SE,126,0.0,12.0,75,0.00,,,0.00,0,weatherlink.com 1.10,2013-03-21 00:09:00,
2013-03-20 20:24:00,79.3,71.0,29.90,SSE,157,3.0,11.0,76,0.00,,,0.00,0,weatherlink.com 1.10,2013-03-21 00:24:00,
2013-03-20 20:39:00,79.2,71.0,29.90,SE,129,2.0,5.0,77,0.00,,,0.00,0,weatherlink.com 1.10,2013-03-21 00:39:00,
2013-03-20 20:54:00,79.1,72.0,29.90,SE,142,3.0,7.0,78,0.00,,,0.00,0,weatherlink.com 1.10,2013-03-21 00:54:00,
2013-03-20 21:10:00,79.0,72.0,29.91,SE,137,1.0,3.0,78,0.00,,,0.00,0,weatherlink.com 1.10,2013-03-21 01:10:00,
2013-03-20 21:24:00,78.9,72.0,29.91,SE,142,1.0,4.0,79,0.00,,,0.00,0,weatherlink.com 1.10,2013-03-21 01:24:00,
2013-03-20 21:39:00,78.7,72.0,29.91,SE,138,0.0,3.0,79,0.00,,,0.00,0,weatherlink.com 1.10,2013-03-21 01:39:00,
2013-03-20 21:54:00,78.4,71.0,29.91,SE,135,2.0,5.0,79,0.00,,,0.00,0,weatherlink.com 1.10,2013-03-21 01:54:00,
2013-03-20 22:10:00,78.2,71.0,29.91,East,90,1.0,6.0,78,0.00,,,0.00,0,weatherlink.com 1.10,2013-03-21 02:10:00,
2013-03-20 22:25:00,78.1,71.0,29.91,East,90,1.0,5.0,79,0.00,,,0.00,0,weatherlink.com 1.10,2013-03-21 02:25:00,
2013-03-20 22:40:00,77.8,70.0,29.91,East,90,0.0,3.0,78,0.00,,,0.00,0,weatherlink.com 1.10,2013-03-21 02:40:00,
2013-03-20 22:55:00,77.8,71.0,29.90,East,90,1.0,3.0,79,0.00,,,0.00,0,weatherlink.com 1.10,2013-03-21 02:55:00,
2013-03-20 23:10:00,77.7,71.0,29.90,East,90,0.0,2.0,79,0.00,,,0.00,0,weatherlink.com 1.10,2013-03-21 03:10:00,
2013-03-20 23:25:00,77.5,71.0,29.90,East,90,0.0,0.0,80,0.00,,,0.00,0,weatherlink.com 1.10,2013-03-21 03:25:00,
2013-03-20 23:40:00,77.5,71.0,29.89,East,90,1.0,2.0,79,0.00,,,0.00,0,weatherlink.com 1.10,2013-03-21 03:40:00,